Time;durP1;ratioP1;P1;durP2;ratioP2;P2;SDS_P1;SDS_P2;PMS_P1;PMS_P2;Temp;Humidity;BMP_temperature;BMP_pressure;BME280_temperature;BME280_humidity;BME280_pressure;Samples;Min_cycle;Max_cycle;Signal;HPM_P1;HPM_P2
2021/12/26 00:01:17;;;;;;;1.03;0.40;;;-2.70;86.10;;;;;;5068762;28;20147;-78
2021/12/26 00:03:45;;;;;;;1.17;0.40;;;-2.60;86.10;;;;;;5073826;28;20464;-78
2021/12/26 00:06:26;;;;;;;1.00;0.30;;;-2.70;86.00;;;;;;5084753;28;20044;-78
2021/12/26 00:09:00;;;;;;;1.57;0.57;;;-2.70;85.90;;;;;;5084994;28;20114;-78
2021/12/26 00:11:27;;;;;;;0.90;0.40;;;-2.70;85.80;;;;;;5085576;28;20040;-78
2021/12/26 00:13:55;;;;;;;1.67;0.30;;;-2.70;85.90;;;;;;5084050;28;20040;-78
2021/12/26 00:16:23;;;;;;;2.87;0.50;;;-2.70;85.90;;;;;;5085316;28;20052;-79
2021/12/26 00:18:51;;;;;;;0.57;0.20;;;-2.70;85.90;;;;;;5068513;28;20097;-78
2021/12/26 00:21:22;;;;;;;0.87;0.27;;;-2.70;85.90;;;;;;5066915;28;20040;-79
2021/12/26 00:23:50;;;;;;;1.20;0.40;;;-2.70;85.80;;;;;;5081423;28;20071;-79
2021/12/26 00:26:17;;;;;;;1.37;0.30;;;-2.70;85.80;;;;;;5065187;28;20130;-78
2021/12/26 00:28:45;;;;;;;1.83;0.40;;;-2.70;85.80;;;;;;5066307;28;20827;-78
2021/12/26 00:31:16;;;;;;;1.00;0.30;;;-2.70;85.70;;;;;;5084829;28;20051;-78
2021/12/26 00:33:47;;;;;;;1.03;0.30;;;-2.70;85.70;;;;;;5067135;28;20044;-78
2021/12/26 00:36:15;;;;;;;1.30;0.50;;;-2.70;85.70;;;;;;5051919;28;20119;-78
2021/12/26 00:38:42;;;;;;;0.93;0.40;;;-2.70;85.70;;;;;;5068848;28;20074;-79
2021/12/26 00:41:09;;;;;;;0.57;0.20;;;-2.70;85.70;;;;;;5085462;28;20893;-79
2021/12/26 00:43:37;;;;;;;0.90;0.30;;;-2.70;85.70;;;;;;5086383;28;20040;-78
2021/12/26 00:46:05;;;;;;;0.93;0.30;;;-2.70;85.70;;;;;;5084763;28;20520;-78
2021/12/26 00:48:33;;;;;;;1.30;0.37;;;-2.70;85.80;;;;;;5068672;28;20044;-79
2021/12/26 00:51:00;;;;;;;0.67;0.30;;;-2.70;85.90;;;;;;5064460;28;20044;-78
2021/12/26 00:53:28;;;;;;;3.30;0.30;;;-2.70;85.80;;;;;;5063349;28;20135;-78
2021/12/26 00:55:55;;;;;;;1.57;0.40;;;-2.70;85.90;;;;;;5064849;28;20435;-79
2021/12/26 00:58:22;;;;;;;0.77;0.27;;;-2.80;85.80;;;;;;5047534;28;20051;-78
2021/12/26 01:00:50;;;;;;;0.50;0.27;;;-2.80;85.80;;;;;;5062910;28;20040;-79
2021/12/26 01:03:19;;;;;;;0.73;0.30;;;-2.80;85.90;;;;;;5064202;28;20048;-79
2021/12/26 01:05:53;;;;;;;1.83;0.30;;;-2.80;85.80;;;;;;5081556;28;20071;-78
2021/12/26 01:08:26;;;;;;;0.77;0.33;;;-2.80;85.70;;;;;;5067816;28;20067;-79
2021/12/26 01:11:04;;;;;;;0.77;0.32;;;-2.80;85.70;;;;;;5082957;28;20097;-78
2021/12/26 01:13:38;;;;;;;;;;;-2.80;85.60;;;;;;5083414;28;20044;-78
2021/12/26 01:16:22;;;;;;;1.27;0.30;;;-2.80;85.70;;;;;;5068557;28;19928;-78
2021/12/26 01:18:55;;;;;;;1.07;0.23;;;-2.80;85.70;;;;;;5057582;28;20051;-78
2021/12/26 01:21:25;;;;;;;0.93;0.30;;;-2.90;85.60;;;;;;5064448;28;20105;-78
2021/12/26 01:24:10;;;;;;;0.90;0.27;;;-2.80;85.70;;;;;;5084442;28;20058;-79
2021/12/26 01:26:39;;;;;;;0.80;0.30;;;-2.90;85.60;;;;;;5068014;28;20059;-78
2021/12/26 01:29:07;;;;;;;1.60;0.40;;;-2.90;85.70;;;;;;5075502;28;20648;-78
2021/12/26 01:31:39;;;;;;;0.45;0.20;;;-2.90;85.70;;;;;;5055218;28;20135;-78
2021/12/26 01:34:32;;;;;;;0.70;0.23;;;-2.90;85.70;;;;;;5058778;28;20143;-79
2021/12/26 01:37:35;;;;;;;0.90;0.30;;;-2.90;85.70;;;;;;5060824;28;20426;-78
2021/12/26 01:40:17;;;;;;;0.70;0.30;;;-2.90;85.60;;;;;;5046605;28;20044;-78
2021/12/26 01:43:12;;;;;;;0.57;0.20;;;-2.90;85.60;;;;;;5080716;28;20087;-78
2021/12/26 01:46:05;;;;;;;0.93;0.30;;;-2.90;85.70;;;;;;5069031;28;20056;-79
2021/12/26 01:48:34;;;;;;;1.30;0.23;;;-2.90;85.70;;;;;;5067884;28;20060;-78
2021/12/26 01:51:02;;;;;;;1.10;0.20;;;-2.90;85.70;;;;;;5050034;28;20040;-78
2021/12/26 01:53:36;;;;;;;0.67;0.20;;;-2.90;85.60;;;;;;5034195;28;20150;-79
2021/12/26 01:56:08;;;;;;;1.17;0.27;;;-2.90;85.60;;;;;;5058514;28;20140;-78
2021/12/26 01:58:37;;;;;;;0.88;0.22;;;-2.80;85.70;;;;;;5066631;28;20049;-79
2021/12/26 02:01:17;;;;;;;0.70;0.30;;;-2.80;85.60;;;;;;5054449;28;20052;-78
2021/12/26 02:03:46;;;;;;;1.13;0.27;;;-2.80;85.60;;;;;;5066648;28;20051;-78
2021/12/26 02:06:13;;;;;;;0.30;0.20;;;-2.80;85.50;;;;;;5083244;28;20055;-78
2021/12/26 02:08:48;;;;;;;0.73;0.20;;;-2.80;85.50;;;;;;5069593;28;20135;-78
2021/12/26 02:11:16;;;;;;;0.60;0.20;;;-2.80;85.50;;;;;;5071888;28;20040;-78
2021/12/26 02:13:46;;;;;;;0.73;0.30;;;-2.80;85.50;;;;;;5087263;28;20052;-78
2021/12/26 02:16:14;;;;;;;0.63;0.20;;;-2.80;85.50;;;;;;5071463;28;20411;-77
2021/12/26 02:18:42;;;;;;;0.67;0.30;;;-2.80;85.50;;;;;;5055045;28;21319;-78
2021/12/26 02:21:46;;;;;;;1.47;0.40;;;-2.80;85.40;;;;;;5038438;28;20389;-77
2021/12/26 02:24:19;;;;;;;0.70;0.27;;;-2.80;85.40;;;;;;5087626;28;20125;-77
2021/12/26 02:29:32;;;;;;;0.37;0.10;;;-2.90;85.40;;;;;;5086592;28;20055;-77
2021/12/26 02:31:59;;;;;;;0.43;0.30;;;-2.90;85.50;;;;;;5087732;28;20117;-77
2021/12/26 02:34:26;;;;;;;0.77;0.23;;;-2.90;85.40;;;;;;5075056;28;20122;-77
2021/12/26 02:36:56;;;;;;;0.83;0.33;;;-2.90;85.40;;;;;;5068344;28;20511;-77
2021/12/26 02:39:24;;;;;;;1.40;0.20;;;-2.90;85.40;;;;;;5069314;28;20052;-77
2021/12/26 02:41:51;;;;;;;0.20;0.10;;;-2.90;85.50;;;;;;5087665;28;20583;-77
2021/12/26 02:44:20;;;;;;;1.33;0.30;;;-2.90;85.50;;;;;;5068768;28;20044;-77
2021/12/26 02:46:47;;;;;;;0.50;0.20;;;-2.90;85.50;;;;;;5070793;28;20036;-77
2021/12/26 02:49:20;;;;;;;0.73;0.10;;;-2.90;85.40;;;;;;5085807;28;20079;-77
2021/12/26 02:51:49;;;;;;;0.10;0.10;;;-2.90;85.40;;;;;;5054489;28;20039;-77
2021/12/26 02:54:19;;;;;;;0.30;0.20;;;-2.90;85.50;;;;;;5086425;28;20490;-78
2021/12/26 02:56:46;;;;;;;0.93;0.30;;;-2.90;85.50;;;;;;5085141;28;20063;-77
2021/12/26 02:59:13;;;;;;;0.90;0.40;;;-2.90;85.20;;;;;;5053707;28;20052;-78
2021/12/26 03:01:41;;;;;;;1.07;0.20;;;-3.00;85.00;;;;;;5069079;28;20579;-77
2021/12/26 03:04:09;;;;;;;1.00;0.30;;;-3.00;85.00;;;;;;5050506;28;20066;-78
2021/12/26 03:07:01;;;;;;;1.03;0.30;;;-3.00;85.10;;;;;;5076639;28;20122;-77
2021/12/26 03:09:41;;;;;;;0.60;0.30;;;-3.00;85.10;;;;;;5072447;28;20189;-77
2021/12/26 03:12:09;;;;;;;2.40;0.50;;;-3.00;85.00;;;;;;5056003;28;20052;-77
2021/12/26 03:14:38;;;;;;;1.23;0.40;;;-3.00;84.90;;;;;;5062871;28;20128;-77
2021/12/26 03:17:05;;;;;;;1.10;0.37;;;-3.00;84.80;;;;;;5069758;28;20051;-77
2021/12/26 03:19:36;;;;;;;1.20;0.30;;;-3.00;84.90;;;;;;5068078;28;20044;-77
2021/12/26 03:22:05;;;;;;;1.23;0.30;;;-3.00;84.90;;;;;;5068123;28;20051;-78
2021/12/26 03:24:34;;;;;;;1.80;0.40;;;-3.00;84.90;;;;;;5086651;28;20044;-77
2021/12/26 03:27:03;;;;;;;1.03;0.30;;;-3.00;84.90;;;;;;5050478;28;20048;-77
2021/12/26 03:29:31;;;;;;;1.53;0.60;;;-3.00;84.70;;;;;;5082293;28;20109;-79
2021/12/26 03:31:59;;;;;;;0.77;0.30;;;-3.10;84.60;;;;;;5065863;28;20043;-79
2021/12/26 03:34:26;;;;;;;1.00;0.20;;;-3.10;84.60;;;;;;5052016;28;20059;-78
2021/12/26 03:36:56;;;;;;;1.13;0.20;;;-3.00;84.60;;;;;;5085752;28;20050;-78
2021/12/26 03:39:25;;;;;;;0.90;0.30;;;-3.10;84.60;;;;;;5054009;28;20093;-77
2021/12/26 03:41:53;;;;;;;1.07;0.40;;;-3.10;84.60;;;;;;5052944;28;20044;-77
2021/12/26 03:44:20;;;;;;;0.70;0.20;;;-3.00;84.70;;;;;;5085699;28;20063;-78
2021/12/26 03:46:48;;;;;;;1.60;0.30;;;-3.00;84.60;;;;;;5070344;28;20646;-77
2021/12/26 03:49:18;;;;;;;0.93;0.30;;;-3.10;84.60;;;;;;5051206;28;20125;-77
2021/12/26 03:51:45;;;;;;;1.33;0.40;;;-3.10;84.50;;;;;;5067885;28;20093;-77
2021/12/26 03:54:13;;;;;;;0.87;0.27;;;-3.10;84.40;;;;;;5061014;28;20075;-77
2021/12/26 03:56:41;;;;;;;0.73;0.30;;;-3.10;84.50;;;;;;5085958;28;20083;-77
2021/12/26 03:59:13;;;;;;;0.65;0.25;;;-3.10;84.40;;;;;;5086127;28;20075;-77
2021/12/26 04:01:41;;;;;;;0.63;0.20;;;-3.10;84.50;;;;;;5069473;28;20500;-77
2021/12/26 04:04:08;;;;;;;0.80;0.20;;;-3.10;84.50;;;;;;5068560;28;20055;-77
2021/12/26 04:06:38;;;;;;;0.83;0.30;;;-3.10;84.50;;;;;;5084838;28;20452;-77
2021/12/26 04:09:07;;;;;;;1.30;0.20;;;-3.10;84.40;;;;;;5043476;28;20041;-76
2021/12/26 04:11:36;;;;;;;0.50;0.20;;;-3.10;84.40;;;;;;5069456;28;20044;-77
2021/12/26 04:14:03;;;;;;;0.67;0.20;;;-3.10;84.50;;;;;;5085558;28;21305;-77
2021/12/26 04:16:30;;;;;;;0.63;0.30;;;-3.10;84.40;;;;;;5068161;28;20075;-77
2021/12/26 04:18:57;;;;;;;0.60;0.20;;;-3.10;84.40;;;;;;5035539;28;20052;-77
2021/12/26 04:21:25;;;;;;;1.33;0.20;;;-3.10;84.40;;;;;;5051696;28;20555;-77
2021/12/26 04:24:00;;;;;;;0.60;0.20;;;-3.10;84.40;;;;;;5061892;28;20055;-77
2021/12/26 04:26:28;;;;;;;1.27;0.20;;;-3.10;84.40;;;;;;5084885;28;20052;-77
2021/12/26 04:28:55;;;;;;;0.70;0.20;;;-3.10;84.40;;;;;;5068630;28;20429;-77
2021/12/26 04:31:23;;;;;;;1.00;0.30;;;-3.10;84.40;;;;;;5057588;28;20047;-78
2021/12/26 04:33:51;;;;;;;1.33;0.30;;;-3.10;84.40;;;;;;5067731;28;20040;-78
2021/12/26 04:36:20;;;;;;;1.23;0.30;;;-3.10;84.40;;;;;;5068769;28;20573;-78
2021/12/26 04:38:50;;;;;;;0.53;0.53;;;-3.10;84.40;;;;;;5059949;28;20496;-78
2021/12/26 04:41:18;;;;;;;0.60;0.20;;;-3.10;84.30;;;;;;5074150;28;20718;-79
2021/12/26 04:44:04;;;;;;;1.67;0.50;;;-3.10;84.90;;;;;;5084689;28;20536;-77
2021/12/26 04:46:41;;;;;;;1.53;0.30;;;-3.10;84.40;;;;;;5037385;28;20082;-77
2021/12/26 04:49:19;;;;;;;1.60;0.30;;;-3.10;84.40;;;;;;5079584;28;20040;-79
2021/12/26 04:51:46;;;;;;;0.93;0.30;;;-3.10;84.30;;;;;;5063930;28;20075;-78
2021/12/26 04:54:13;;;;;;;0.27;0.20;;;-3.20;84.20;;;;;;5081363;28;20044;-79
2021/12/26 04:56:43;;;;;;;0.63;0.20;;;-3.10;84.30;;;;;;5081156;28;20056;-79
2021/12/26 04:59:11;;;;;;;1.63;0.30;;;-3.20;84.10;;;;;;5066110;28;21046;-78
2021/12/26 05:01:40;;;;;;;1.10;0.30;;;-3.20;84.10;;;;;;5067047;28;20495;-77
2021/12/26 05:04:09;;;;;;;1.30;0.40;;;-3.20;84.10;;;;;;5081977;28;20051;-79
2021/12/26 05:06:37;;;;;;;0.40;0.20;;;-3.20;84.40;;;;;;5083109;28;20464;-78
2021/12/26 05:09:05;;;;;;;0.87;0.30;;;-3.20;84.10;;;;;;5084326;28;20129;-78
2021/12/26 05:11:33;;;;;;;0.70;0.40;;;-3.20;84.10;;;;;;5067178;28;20668;-78
2021/12/26 05:14:00;;;;;;;0.57;0.30;;;-3.20;84.00;;;;;;5066921;28;20062;-78
2021/12/26 05:16:27;;;;;;;1.13;0.40;;;-3.20;84.00;;;;;;5067029;28;20135;-79
2021/12/26 05:18:54;;;;;;;1.77;0.93;;;-3.20;83.90;;;;;;5067827;28;20531;-79
2021/12/26 05:21:21;;;;;;;1.00;0.40;;;-3.20;83.80;;;;;;5066596;28;20055;-79
2021/12/26 05:23:48;;;;;;;0.93;0.30;;;-3.20;83.80;;;;;;5067905;28;20404;-79
2021/12/26 05:26:16;;;;;;;1.37;0.27;;;-3.20;83.80;;;;;;5067210;28;20043;-79
2021/12/26 05:28:44;;;;;;;1.00;0.30;;;-3.20;83.70;;;;;;5073012;28;20070;-78
2021/12/26 05:31:13;;;;;;;0.70;0.20;;;-3.20;83.70;;;;;;5068397;28;20051;-78
2021/12/26 05:33:42;;;;;;;1.50;0.40;;;-3.10;83.70;;;;;;5051395;28;20040;-79
2021/12/26 05:36:09;;;;;;;1.20;0.30;;;-3.20;83.60;;;;;;5050125;28;20831;-78
2021/12/26 05:38:40;;;;;;;0.70;0.20;;;-3.20;83.70;;;;;;5069311;28;20047;-78
2021/12/26 05:41:07;;;;;;;0.87;0.20;;;-3.10;83.70;;;;;;5067445;28;20040;-78
2021/12/26 05:43:39;;;;;;;1.20;0.30;;;-3.10;83.60;;;;;;5068493;28;20129;-79
2021/12/26 05:46:06;;;;;;;1.20;0.40;;;-3.20;83.50;;;;;;5054065;28;20093;-78
2021/12/26 05:48:34;;;;;;;0.93;0.30;;;-3.10;83.50;;;;;;5053940;28;20040;-79
2021/12/26 05:51:02;;;;;;;1.50;0.37;;;-3.10;83.50;;;;;;5086865;28;20678;-79
2021/12/26 05:53:58;;;;;;;1.33;0.30;;;-3.10;83.50;;;;;;5074776;28;20385;-79
2021/12/26 05:56:25;;;;;;;0.63;0.30;;;-3.10;83.40;;;;;;5070981;28;20432;-79
2021/12/26 05:58:56;;;;;;;1.20;0.30;;;-3.10;83.30;;;;;;5071531;28;20093;-79
2021/12/26 06:01:24;;;;;;;0.70;0.37;;;-3.00;83.40;;;;;;5088001;28;20067;-79
2021/12/26 06:03:52;;;;;;;1.17;0.30;;;-3.00;83.40;;;;;;5069313;28;20047;-79
2021/12/26 06:06:19;;;;;;;0.53;0.20;;;-2.90;83.30;;;;;;5071358;28;20048;-78
2021/12/26 06:08:47;;;;;;;1.27;0.30;;;-2.90;83.20;;;;;;5039133;28;20117;-78
2021/12/26 06:11:14;;;;;;;0.87;0.30;;;-2.80;83.10;;;;;;5088370;28;20666;-79
2021/12/26 06:13:43;;;;;;;1.23;0.40;;;-2.70;83.00;;;;;;5055361;28;20097;-79
2021/12/26 06:16:10;;;;;;;1.10;0.63;;;-2.70;82.80;;;;;;5070644;28;20044;-79
2021/12/26 06:18:40;;;;;;;0.37;0.20;;;-2.70;82.60;;;;;;5057725;28;20047;-79
2021/12/26 06:21:25;;;;;;;1.27;0.30;;;-2.60;82.70;;;;;;5074012;28;20404;-79
2021/12/26 06:24:24;;;;;;;1.63;0.30;;;-2.50;82.70;;;;;;5074575;28;20048;-79
2021/12/26 06:27:10;;;;;;;0.77;0.30;;;-2.50;82.70;;;;;;5074629;28;20051;-79
2021/12/26 06:30:07;;;;;;;0.80;0.30;;;-2.40;82.60;;;;;;5087558;28;20048;-79
2021/12/26 06:32:53;;;;;;;2.00;0.40;;;-2.40;82.60;;;;;;5087792;28;20059;-78
2021/12/26 06:35:42;;;;;;;1.17;0.30;;;-2.40;82.50;;;;;;5058685;28;20109;-79
2021/12/26 06:38:46;;;;;;;0.93;0.23;;;-2.30;82.60;;;;;;5054241;28;20049;-79
2021/12/26 06:41:33;;;;;;;0.90;0.40;;;-2.30;82.60;;;;;;5098437;28;20058;-79
2021/12/26 06:44:18;;;;;;;0.70;0.30;;;-2.30;82.40;;;;;;5073761;28;20756;-78
2021/12/26 06:46:52;;;;;;;2.30;0.30;;;-2.30;82.30;;;;;;5070788;28;20048;-78
2021/12/26 06:49:29;;;;;;;1.07;0.20;;;-2.20;82.40;;;;;;5086946;28;20131;-78
2021/12/26 06:52:02;;;;;;;1.20;0.30;;;-2.20;82.40;;;;;;5070757;28;20040;-80
2021/12/26 06:54:29;;;;;;;0.93;0.40;;;-2.20;82.40;;;;;;5053211;28;20048;-79
2021/12/26 06:56:56;;;;;;;1.10;0.40;;;-2.30;82.30;;;;;;5054062;28;20532;-78
2021/12/26 06:59:25;;;;;;;0.80;0.33;;;-2.20;82.50;;;;;;5052513;28;20051;-78
2021/12/26 07:01:53;;;;;;;0.53;0.20;;;-2.30;82.30;;;;;;5070339;28;20044;-79
2021/12/26 07:04:23;;;;;;;0.57;0.27;;;-2.30;82.30;;;;;;5070837;28;20052;-79
2021/12/26 07:06:50;;;;;;;0.83;0.43;;;-2.30;82.40;;;;;;5070001;28;20050;-78
2021/12/26 07:09:25;;;;;;;1.10;0.30;;;-2.30;82.30;;;;;;5039889;28;20101;-78
2021/12/26 07:11:55;;;;;;;1.13;0.20;;;-2.20;82.40;;;;;;5070731;28;20654;-79
2021/12/26 07:14:35;;;;;;;0.70;0.20;;;-2.20;82.40;;;;;;5071223;28;20048;-79
2021/12/26 07:17:02;;;;;;;0.60;0.20;;;-2.20;82.40;;;;;;5054138;28;20051;-78
2021/12/26 07:19:30;;;;;;;0.67;0.30;;;-2.20;82.30;;;;;;5069770;28;20044;-81
2021/12/26 07:22:07;;;;;;;0.30;0.20;;;-2.10;82.40;;;;;;5070383;28;20079;-81
2021/12/26 07:24:36;;;;;;;0.77;0.30;;;-2.10;82.40;;;;;;5078167;28;20075;-78
2021/12/26 07:27:03;;;;;;;1.20;0.50;;;-2.10;82.30;;;;;;5069884;28;20045;-83
2021/12/26 07:29:51;;;;;;;0.60;0.30;;;-2.10;82.30;;;;;;5073668;28;20063;-81
2021/12/26 07:32:19;;;;;;;1.30;0.20;;;-2.00;82.40;;;;;;5063647;28;20134;-82
2021/12/26 07:34:47;;;;;;;0.70;0.30;;;-2.00;82.30;;;;;;5086098;28;20044;-83
2021/12/26 07:37:16;;;;;;;0.40;0.20;;;-2.00;82.20;;;;;;5069406;28;20040;-79
2021/12/26 07:39:44;;;;;;;0.97;0.30;;;-2.00;82.20;;;;;;5068695;28;20120;-78
2021/12/26 07:42:11;;;;;;;0.60;0.20;;;-2.00;82.20;;;;;;5052657;28;20052;-79
2021/12/26 07:45:04;;;;;;;1.17;0.60;;;-2.00;82.20;;;;;;5073264;28;20056;-78
2021/12/26 07:47:51;;;;;;;0.73;0.30;;;-2.00;82.30;;;;;;5085907;28;20775;-78
2021/12/26 07:50:18;;;;;;;1.23;0.30;;;-2.00;82.40;;;;;;5069122;28;20492;-79
2021/12/26 07:53:08;;;;;;;0.27;0.20;;;-2.00;82.30;;;;;;5072130;28;20046;-79
2021/12/26 07:55:54;;;;;;;0.70;0.27;;;-2.00;82.40;;;;;;5086201;28;20179;-79
2021/12/26 07:58:42;;;;;;;0.60;0.23;;;-2.00;82.40;;;;;;5080990;28;20054;-78
2021/12/26 08:01:50;;;;;;;1.03;0.40;;;-2.00;82.40;;;;;;5058336;28;20078;-78
2021/12/26 08:04:53;;;;;;;0.65;0.20;;;-2.00;83.10;;;;;;5054946;28;20389;-79
2021/12/26 08:07:43;;;;;;;1.00;0.20;;;-2.00;82.50;;;;;;5080314;28;20056;-79
2021/12/26 08:10:14;;;;;;;1.17;0.20;;;-2.00;82.60;;;;;;5082331;28;20071;-79
2021/12/26 08:12:41;;;;;;;1.07;0.40;;;-2.00;82.50;;;;;;5048714;28;20184;-80
2021/12/26 08:15:09;;;;;;;1.17;0.30;;;-2.10;82.50;;;;;;5068365;28;20697;-79
2021/12/26 08:17:38;;;;;;;1.10;0.27;;;-2.10;82.50;;;;;;5051056;28;20051;-80
2021/12/26 08:20:06;;;;;;;1.17;0.27;;;-2.10;82.60;;;;;;5068216;28;20060;-78
2021/12/26 08:22:33;;;;;;;0.67;0.27;;;-2.20;82.60;;;;;;5084094;28;20059;-78
2021/12/26 08:25:00;;;;;;;0.97;0.23;;;-2.20;82.70;;;;;;5084082;28;20059;-79
2021/12/26 08:27:27;;;;;;;1.47;0.40;;;-2.20;82.70;;;;;;5066619;28;20051;-79
2021/12/26 08:29:54;;;;;;;0.93;0.40;;;-2.20;82.80;;;;;;5067092;28;20035;-78
2021/12/26 08:32:21;;;;;;;1.20;0.43;;;-2.20;82.70;;;;;;5071786;28;20060;-79
2021/12/26 08:34:49;;;;;;;1.97;0.37;;;-2.20;82.70;;;;;;5050117;28;20048;-79
2021/12/26 08:37:17;;;;;;;1.53;0.40;;;-2.20;82.70;;;;;;5051312;28;20109;-79
2021/12/26 08:39:46;;;;;;;0.83;0.30;;;-2.20;82.60;;;;;;5050367;28;20055;-79
2021/12/26 08:42:14;;;;;;;1.13;0.30;;;-2.20;82.60;;;;;;5065631;28;20068;-79
2021/12/26 08:44:42;;;;;;;1.33;0.37;;;-2.20;82.60;;;;;;5066476;28;20767;-78
2021/12/26 08:47:11;;;;;;;1.53;0.40;;;-2.20;82.60;;;;;;5083686;28;20588;-79
2021/12/26 08:49:39;;;;;;;1.50;0.40;;;-2.20;82.60;;;;;;5067657;28;20471;-78
2021/12/26 08:52:06;;;;;;;1.00;0.30;;;-2.20;82.60;;;;;;5068185;28;20036;-78
2021/12/26 08:54:39;;;;;;;1.10;0.40;;;-2.20;82.60;;;;;;5067793;28;20048;-80
2021/12/26 08:57:07;;;;;;;;;;;-2.20;82.60;;;;;;5068746;28;20051;-79
2021/12/26 08:59:36;;;;;;;0.77;0.20;;;-2.20;82.70;;;;;;5068059;28;19924;-78
2021/12/26 09:02:08;;;;;;;1.70;0.50;;;-2.20;82.70;;;;;;5052666;28;20123;-78
2021/12/26 09:04:37;;;;;;;1.38;0.28;;;-2.20;82.70;;;;;;5065348;28;20132;-77
2021/12/26 09:07:06;;;;;;;0.97;0.20;;;-2.20;82.70;;;;;;5084433;28;20051;-78
2021/12/26 09:09:33;;;;;;;0.90;0.20;;;-2.20;82.70;;;;;;5066263;28;20032;-78
2021/12/26 09:12:01;;;;;;;1.47;0.53;;;-2.10;82.80;;;;;;5084808;28;20044;-78
2021/12/26 09:14:29;;;;;;;1.30;0.40;;;-2.10;82.80;;;;;;5067707;28;20043;-79
2021/12/26 09:16:57;;;;;;;1.23;0.40;;;-2.10;82.80;;;;;;5068030;28;20040;-78
2021/12/26 09:19:27;;;;;;;1.70;0.40;;;-2.10;82.80;;;;;;5068685;28;20047;-78
2021/12/26 09:21:56;;;;;;;1.77;0.60;;;-2.10;82.70;;;;;;5061526;28;20054;-79
2021/12/26 09:24:23;;;;;;;0.87;0.30;;;-2.10;82.70;;;;;;5084342;28;20064;-80
2021/12/26 09:26:51;;;;;;;1.00;0.40;;;-2.10;82.70;;;;;;5062170;28;20044;-79
2021/12/26 09:29:22;;;;;;;0.80;0.37;;;-2.00;82.70;;;;;;5084647;28;20036;-79
2021/12/26 09:31:51;;;;;;;1.63;0.60;;;-2.00;82.60;;;;;;5080765;28;20068;-78
2021/12/26 09:34:18;;;;;;;1.57;0.60;;;-2.00;82.70;;;;;;5082829;28;20121;-78
2021/12/26 09:36:47;;;;;;;1.30;0.50;;;-2.00;82.60;;;;;;5072160;28;20037;-79
2021/12/26 09:39:15;;;;;;;1.87;0.70;;;-2.00;82.50;;;;;;5066926;28;20483;-79
2021/12/26 09:41:42;;;;;;;1.40;0.40;;;-2.00;82.60;;;;;;5068165;28;20703;-78
2021/12/26 09:44:09;;;;;;;1.17;0.50;;;-1.90;82.60;;;;;;5081871;28;20052;-78
2021/12/26 09:46:37;;;;;;;1.27;0.50;;;-1.90;82.60;;;;;;5064722;28;20154;-78
2021/12/26 09:49:04;;;;;;;1.03;0.30;;;-1.90;82.60;;;;;;5050032;28;20143;-78
2021/12/26 09:51:32;;;;;;;1.43;0.50;;;-1.80;82.60;;;;;;5067586;28;20411;-78
2021/12/26 09:54:00;;;;;;;2.90;0.50;;;-1.80;82.60;;;;;;5066967;28;20035;-78
2021/12/26 09:56:28;;;;;;;1.13;0.30;;;-1.80;82.60;;;;;;5069761;28;20048;-78
2021/12/26 09:59:05;;;;;;;1.40;0.40;;;-1.80;82.60;;;;;;5084318;28;20040;-78
2021/12/26 10:01:38;;;;;;;1.27;0.30;;;-1.70;82.60;;;;;;5085029;28;20512;-78
2021/12/26 10:04:16;;;;;;;1.30;0.40;;;-1.70;82.60;;;;;;5084335;28;20048;-78
2021/12/26 10:06:44;;;;;;;0.87;0.30;;;-1.70;82.50;;;;;;5083713;28;20049;-78
2021/12/26 10:09:14;;;;;;;1.27;0.40;;;-1.70;82.50;;;;;;5065378;28;20480;-78
2021/12/26 10:11:48;;;;;;;1.00;0.40;;;-1.60;82.50;;;;;;5067248;28;20052;-78
2021/12/26 10:14:22;;;;;;;1.60;0.50;;;-1.60;82.50;;;;;;5083519;28;20159;-79
2021/12/26 10:17:23;;;;;;;1.00;0.40;;;-1.60;82.50;;;;;;5084020;28;20040;-79
2021/12/26 10:20:06;;;;;;;1.50;0.40;;;-1.50;82.50;;;;;;5059183;28;20051;-79
2021/12/26 10:22:33;;;;;;;1.30;0.40;;;-1.50;82.60;;;;;;5082287;28;20051;-79
2021/12/26 10:25:08;;;;;;;1.37;0.50;;;-1.40;82.60;;;;;;5068577;28;20401;-79
2021/12/26 10:27:37;;;;;;;1.70;0.47;;;-1.40;82.50;;;;;;5064229;28;20056;-79
2021/12/26 10:30:06;;;;;;;2.40;0.50;;;-1.40;82.60;;;;;;5082596;28;20056;-79
2021/12/26 10:32:38;;;;;;;2.40;0.57;;;-1.30;82.60;;;;;;5049213;28;20692;-80
2021/12/26 10:35:12;;;;;;;0.98;0.30;;;-1.30;82.50;;;;;;5083063;28;20051;-81
2021/12/26 10:37:51;;;;;;;0.73;0.30;;;-1.30;82.60;;;;;;5072001;28;20064;-81
2021/12/26 10:40:27;;;;;;;0.67;0.33;;;-1.30;82.60;;;;;;5084842;28;20052;-80
2021/12/26 10:43:10;;;;;;;1.38;0.60;;;-1.30;83.30;;;;;;5085965;28;20047;-80
2021/12/26 10:45:37;;;;;;;1.17;0.37;;;-1.20;83.30;;;;;;5065857;28;20461;-80
2021/12/26 10:48:07;;;;;;;0.90;0.30;;;-1.20;82.70;;;;;;5048125;28;20056;-80
2021/12/26 10:50:40;;;;;;;1.70;0.50;;;-1.20;83.30;;;;;;5082308;28;20050;-80
2021/12/26 10:53:11;;;;;;;1.45;1.20;;;-1.20;82.70;;;;;;5065607;28;20044;-79
2021/12/26 10:55:41;;;;;;;4.00;0.53;;;-1.20;82.70;;;;;;5064909;28;20148;-80
2021/12/26 10:58:14;;;;;;;0.80;0.40;;;-1.10;82.80;;;;;;5067036;28;20063;-80
2021/12/26 11:00:46;;;;;;;1.53;0.60;;;-1.10;82.80;;;;;;5077990;28;20048;-81
2021/12/26 11:03:21;;;;;;;;;;;-1.10;82.90;;;;;;5068526;28;20055;-79
2021/12/26 11:05:52;;;;;;;1.57;0.40;;;-1.10;82.90;;;;;;5067076;28;19932;-79
2021/12/26 11:08:36;;;;;;;1.03;0.40;;;-1.10;82.90;;;;;;5084197;28;20048;-79
2021/12/26 11:11:16;;;;;;;0.70;0.40;;;-1.10;82.80;;;;;;5082292;28;20054;-79
2021/12/26 11:14:01;;;;;;;1.13;0.30;;;-1.00;82.90;;;;;;5082383;28;20508;-79
2021/12/26 11:16:40;;;;;;;0.97;0.37;;;-1.00;82.90;;;;;;5063457;28;20044;-79
2021/12/26 11:19:07;;;;;;;1.00;0.37;;;-0.90;82.90;;;;;;5067376;28;20044;-79
2021/12/26 11:21:35;;;;;;;1.03;0.47;;;-0.90;82.90;;;;;;5029136;28;20071;-78
2021/12/26 11:24:04;;;;;;;1.50;0.60;;;-0.90;83.00;;;;;;5052644;28;20094;-80
2021/12/26 11:26:31;;;;;;;1.77;0.57;;;-0.90;83.00;;;;;;5068982;28;20080;-79
2021/12/26 11:28:58;;;;;;;1.27;0.60;;;-0.90;82.90;;;;;;5050796;28;20090;-78
2021/12/26 11:31:28;;;;;;;1.07;0.50;;;-0.80;82.90;;;;;;5069284;28;20060;-78
2021/12/26 11:34:02;;;;;;;1.60;0.50;;;-0.80;82.90;;;;;;5059748;28;20093;-78
2021/12/26 11:36:32;;;;;;;1.23;0.60;;;-0.80;82.80;;;;;;5084663;28;20044;-78
2021/12/26 11:39:22;;;;;;;1.90;0.60;;;-0.70;82.90;;;;;;5085692;28;20806;-78
2021/12/26 11:42:26;;;;;;;1.27;0.43;;;-0.70;82.90;;;;;;5071963;28;20440;-77
2021/12/26 11:45:40;;;;;;;1.97;0.50;;;-0.70;82.90;;;;;;5083354;28;20431;-79
2021/12/26 11:48:42;;;;;;;2.27;0.73;;;-0.60;82.90;;;;;;5086152;28;20051;-79
2021/12/26 11:51:50;;;;;;;2.77;0.90;;;-0.60;82.90;;;;;;5086907;28;20097;-77
2021/12/26 11:54:52;;;;;;;2.00;0.83;;;-0.60;82.90;;;;;;5083935;28;20396;-78
2021/12/26 11:58:00;;;;;;;1.30;0.50;;;-0.50;83.00;;;;;;5074614;28;20048;-79
2021/12/26 12:00:38;;;;;;;1.43;0.57;;;-0.50;83.10;;;;;;5070473;28;20044;-80
2021/12/26 12:03:19;;;;;;;1.57;0.50;;;-0.50;83.20;;;;;;5083364;28;20454;-78
2021/12/26 12:05:47;;;;;;;2.63;0.63;;;-0.50;83.20;;;;;;5068665;28;20500;-80
2021/12/26 12:08:34;;;;;;;1.30;0.43;;;-0.40;83.30;;;;;;5068926;28;20480;-78
2021/12/26 12:11:04;;;;;;;1.43;0.43;;;-0.40;83.30;;;;;;5085405;28;20040;-77
2021/12/26 12:13:45;;;;;;;1.03;0.50;;;-0.40;83.30;;;;;;5086097;28;20879;-78
2021/12/26 12:16:23;;;;;;;;;;;-0.30;83.30;;;;;;5068989;28;20082;-78
2021/12/26 12:19:04;;;;;;;0.93;0.47;;;-0.30;84.00;;;;;;5085791;28;19920;-80
2021/12/26 12:21:50;;;;;;;2.40;0.70;;;-0.30;83.30;;;;;;5085615;28;20036;-79
2021/12/26 12:24:31;;;;;;;1.13;0.50;;;-0.20;83.30;;;;;;5082737;28;20134;-77
2021/12/26 12:27:09;;;;;;;1.83;0.80;;;-0.20;83.30;;;;;;5067893;28;20084;-79
2021/12/26 12:29:42;;;;;;;2.40;0.83;;;-0.10;83.40;;;;;;5086204;28;20453;-79
2021/12/26 12:32:09;;;;;;;2.13;0.90;;;-0.10;83.30;;;;;;5085541;28;20062;-77
2021/12/26 12:35:04;;;;;;;2.03;0.80;;;-0.10;83.40;;;;;;5082578;28;20131;-77
2021/12/26 12:37:43;;;;;;;1.30;0.60;;;-0.10;83.50;;;;;;5087169;28;20490;-81
2021/12/26 12:40:26;;;;;;;2.53;0.70;;;-0.10;83.50;;;;;;5086357;28;20044;-81
2021/12/26 12:43:16;;;;;;;;;;;-0.10;83.60;;;;;;5087556;28;20051;-81
2021/12/26 12:45:57;;;;;;;2.57;0.60;;;0.00;83.70;;;;;;5078107;28;19924;-82
2021/12/26 12:48:29;;;;;;;2.07;0.67;;;0.00;83.60;;;;;;5085964;28;20093;-81
2021/12/26 12:51:12;;;;;;;1.50;0.50;;;0.10;83.50;;;;;;5069046;28;20492;-81
2021/12/26 12:53:47;;;;;;;1.80;0.70;;;0.20;83.50;;;;;;5084113;28;20043;-79
2021/12/26 12:56:41;;;;;;;2.17;0.63;;;0.40;83.50;;;;;;5082865;28;20577;-81
2021/12/26 12:59:18;;;;;;;2.70;0.80;;;0.50;83.50;;;;;;5069556;28;20051;-81
2021/12/26 13:01:46;;;;;;;2.10;0.67;;;0.60;83.40;;;;;;5069011;28;20044;-83
2021/12/26 13:04:18;;;;;;;2.57;0.60;;;0.60;83.40;;;;;;5084398;28;20071;-80
2021/12/26 13:06:52;;;;;;;2.83;1.10;;;0.70;83.40;;;;;;5086800;28;20376;-79
2021/12/26 13:09:20;;;;;;;1.87;0.90;;;0.70;83.30;;;;;;5085559;28;20657;-80
2021/12/26 13:11:49;;;;;;;2.67;1.20;;;0.80;83.30;;;;;;5078656;28;20044;-82
2021/12/26 13:15:00;;;;;;;2.13;0.70;;;0.80;83.30;;;;;;5084495;28;20075;-81
2021/12/26 13:17:42;;;;;;;1.50;0.70;;;0.90;83.30;;;;;;5065233;28;20047;-80
2021/12/26 13:20:32;;;;;;;2.90;1.25;;;0.90;83.40;;;;;;5080226;28;20060;-80
2021/12/26 13:23:10;;;;;;;2.93;1.13;;;1.00;83.40;;;;;;5065848;28;20044;-80